Messwerte Santa Rosa

Temperatur

Temperatur
°C
1603998000 12.00 12.00 19
1604001600 13.00 13.00 22
1604005200 14.00 14.00 25
1604008800 15.00 15.00 26
1604012400 16.00 16.00 27
1604016000 17.00 17.00 26
1604019600 18.00 18.00 23
1604023200 19.00 19.00 17
1604026800 20.00 20.00 14
1604030400 21.00 21.00 12
1604034000 22.00 22.00 11
1604037600 23.00 23.00 9
1604041200 0.00 0.00 8
1604044800 1.00 1.00 7
1604048400 2.00 2.00 7
1604052000 3.00 3.00 5
1604055600 4.00 4.00 4
1604059200 5.00 5.00
1604062800 6.00 6.00 3
1604066400 7.00 7.00 2
1604070000 8.00 8.00 3
1604073600 9.00 9.00
1604077200 10.00 10.00 9
1604080800 11.00 11.00 13

Aktuellste Messwerte

Wettercharakter
Wetter: sonnig
Temperatur
17 °C
Feuchtigkeit
45 %
Wind
5 km/hWindrichtung: Südost
Luftdruck
1019 hPa
Messzeit: 30. Oktober 2020, 12.00Datenquelle: METAR

Weitere Messstationen in der Nähe

Messstation Temperatur Entfernung
Napa 18 °C 57 km
Vacaville 22 °C 76 km
Ukiah 20 °C 77 km
Fairfield 23 °C 80 km
Concord 21 °C 87 km
Oakland 18 °C 98 km
Flughafen San Francisco 17 °C 105 km

Wind

Windrichtung Böen Mittelwind
° km/h km/h
1603998000 12.00 11.00 - 12.00 0
1604001600 13.00 12.00 - 13.00 0
1604005200 14.00 13.00 - 14.00 170° 10
1604008800 15.00 14.00 - 15.00 180° 10
1604012400 16.00 15.00 - 16.00 160° 5
1604016000 17.00 16.00 - 17.00 190° 10
1604019600 18.00 17.00 - 18.00 200° 5
1604023200 19.00 18.00 - 19.00 140° 10
1604026800 20.00 19.00 - 20.00 160° 5
1604030400 21.00 20.00 - 21.00 180° 5
1604034000 22.00 21.00 - 22.00 0
1604037600 23.00 22.00 - 23.00 0
1604041200 0.00 23.00 - 0.00 0
1604044800 1.00 0.00 - 1.00 0
1604048400 2.00 1.00 - 2.00 0
1604052000 3.00 2.00 - 3.00 0
1604055600 4.00 3.00 - 4.00 0
1604059200 5.00 4.00 - 5.00
1604062800 6.00 5.00 - 6.00 0
1604066400 7.00 6.00 - 7.00 0
1604070000 8.00 7.00 - 8.00 0
1604073600 9.00 8.00 - 9.00
1604077200 10.00 9.00 - 10.00 0
1604080800 11.00 10.00 - 11.00 0

Ihre Wetterstation

Fehlt Ihre Wetterstation auf unserem Portal?

Schreiben Sie an network@meteonews.ch

Klima

Wann ist es am wärmsten? Wann regnet es am wenigsten? Unsere Klimadaten geben Auskunft.